createdAt,value
2019-02-17T00:00:50.897Z,0.00
2019-02-17T00:01:50.948Z,0.00
2019-02-17T00:02:51.008Z,0.00
2019-02-17T00:03:51.070Z,0.00
2019-02-17T00:04:51.149Z,0.00
2019-02-17T00:05:51.184Z,0.00
2019-02-17T00:06:51.244Z,0.00
2019-02-17T00:07:51.304Z,0.00
2019-02-17T00:08:51.364Z,0.00
2019-02-17T00:09:51.432Z,0.00
2019-02-17T00:10:51.492Z,0.00
2019-02-17T00:11:51.541Z,0.00
2019-02-17T00:12:51.601Z,0.00
2019-02-17T00:13:51.661Z,0.00
2019-02-17T00:14:51.729Z,0.00
2019-02-17T00:15:51.788Z,0.00
2019-02-17T00:16:51.842Z,0.00
2019-02-17T00:17:51.897Z,0.00
2019-02-17T00:18:51.957Z,0.00
2019-02-17T00:19:52.025Z,0.00
2019-02-17T00:20:52.085Z,0.00
2019-02-17T00:21:52.149Z,0.00
2019-02-17T00:22:52.200Z,0.00
2019-02-17T00:23:52.255Z,0.00
2019-02-17T00:24:52.321Z,0.00
2019-02-17T00:25:52.381Z,0.00
2019-02-17T00:26:52.433Z,0.00
2019-02-17T00:27:52.493Z,0.00
2019-02-17T00:28:59.219Z,0.00
2019-02-17T00:29:52.617Z,0.00
2019-02-17T00:30:52.677Z,0.00
2019-02-17T00:31:52.729Z,0.00
2019-02-17T00:32:52.790Z,0.00
2019-02-17T00:33:52.850Z,0.00
2019-02-17T00:34:52.916Z,0.00
2019-02-17T00:35:52.974Z,0.00
2019-02-17T00:36:53.029Z,0.00
2019-02-17T00:37:53.086Z,0.00
2019-02-17T00:38:53.146Z,0.00
2019-02-17T00:39:53.315Z,0.00
2019-02-17T00:40:53.263Z,0.00
2019-02-17T00:41:53.322Z,0.00
2019-02-17T00:42:53.385Z,0.00
2019-02-17T00:43:53.443Z,0.00
2019-02-17T00:44:53.507Z,0.00
2019-02-17T00:45:53.566Z,0.00
2019-02-17T00:46:53.620Z,0.00
2019-02-17T00:47:53.674Z,0.00
2019-02-17T00:48:53.738Z,0.00
2019-02-17T00:49:53.802Z,0.00
2019-02-17T00:50:53.862Z,0.00
2019-02-17T00:51:53.914Z,0.00
2019-02-17T00:52:54.755Z,0.00
2019-02-17T00:53:54.690Z,0.00
2019-02-17T00:54:54.731Z,0.00
2019-02-17T00:55:54.775Z,0.00
2019-02-17T00:56:55.050Z,0.00
2019-02-17T00:57:54.891Z,0.00
2019-02-17T00:58:55.099Z,0.00
2019-02-17T00:59:54.783Z,0.00
2019-02-17T01:00:56.331Z,0.00
2019-02-17T01:01:54.675Z,0.00
2019-02-17T01:02:54.642Z,0.00
2019-02-17T01:03:54.675Z,0.00
2019-02-17T01:04:54.723Z,0.00
2019-02-17T01:05:54.766Z,0.00
2019-02-17T01:06:54.814Z,0.00
2019-02-17T01:07:54.859Z,0.00
2019-02-17T01:08:54.927Z,0.00
2019-02-17T01:09:55.003Z,0.00
2019-02-17T01:10:55.055Z,0.00
2019-02-17T01:11:55.107Z,0.00
2019-02-17T01:12:55.163Z,0.00
2019-02-17T01:13:55.219Z,0.00
2019-02-17T01:14:55.323Z,0.00
2019-02-17T01:15:55.339Z,0.00
2019-02-17T01:16:55.398Z,0.00
2019-02-17T01:17:55.459Z,0.00
2019-02-17T01:18:55.516Z,0.00
2019-02-17T01:19:55.591Z,0.00
2019-02-17T01:20:55.635Z,0.00
2019-02-17T01:21:55.695Z,0.00
2019-02-17T01:22:55.755Z,0.00
2019-02-17T01:23:55.811Z,0.00
2019-02-17T01:24:55.875Z,0.00
2019-02-17T01:25:55.943Z,0.00
2019-02-17T01:26:55.995Z,0.00
2019-02-17T01:27:56.048Z,0.00
2019-02-17T01:28:56.107Z,0.00
2019-02-17T01:29:56.163Z,0.00
2019-02-17T01:30:56.247Z,0.00
2019-02-17T01:31:56.288Z,0.00
2019-02-17T01:32:56.351Z,0.00
2019-02-17T01:33:56.402Z,0.00
2019-02-17T01:34:56.463Z,0.00
2019-02-17T01:35:56.529Z,0.00
2019-02-17T01:36:56.595Z,0.00
2019-02-17T01:37:58.245Z,0.00
2019-02-17T01:38:56.695Z,0.00
2019-02-17T01:39:56.775Z,0.00
2019-02-17T01:40:56.819Z,0.00
2019-02-17T01:41:56.880Z,0.00
2019-02-17T01:42:56.931Z,0.00
2019-02-17T01:43:56.992Z,0.00
2019-02-17T01:44:57.054Z,0.00
2019-02-17T01:45:57.128Z,0.00
2019-02-17T01:46:57.168Z,0.00
2019-02-17T01:47:57.232Z,0.00
2019-02-17T01:48:57.279Z,0.00
2019-02-17T01:49:57.343Z,0.00
2019-02-17T01:50:57.428Z,0.00
2019-02-17T01:51:57.467Z,0.00
2019-02-17T01:52:57.531Z,0.00
2019-02-17T01:53:57.580Z,0.00
2019-02-17T01:54:57.643Z,0.00
2019-02-17T01:55:57.715Z,0.00
2019-02-17T01:56:57.763Z,0.00
2019-02-17T01:57:57.822Z,0.00
2019-02-17T01:58:57.879Z,0.00
2019-02-17T01:59:57.939Z,0.00
2019-02-17T02:00:58.011Z,0.00
2019-02-17T02:01:58.059Z,0.00
2019-02-17T02:02:58.120Z,0.00
2019-02-17T02:03:58.172Z,0.00
2019-02-17T02:04:58.232Z,0.00
2019-02-17T02:05:58.312Z,0.00
2019-02-17T02:06:58.352Z,0.00
2019-02-17T02:07:58.403Z,0.00
2019-02-17T02:08:58.463Z,0.00
2019-02-17T02:09:58.523Z,0.00
2019-02-17T02:10:58.587Z,0.00
2019-02-17T02:11:58.656Z,0.00
2019-02-17T02:12:58.699Z,0.00
2019-02-17T02:13:58.764Z,0.00
2019-02-17T02:14:58.816Z,0.00
2019-02-17T02:15:58.884Z,0.00
2019-02-17T02:16:58.944Z,0.00
2019-02-17T02:17:59.017Z,0.00
2019-02-17T02:18:59.058Z,0.00
2019-02-17T02:19:59.119Z,0.00
2019-02-17T02:20:59.256Z,0.00
2019-02-17T02:21:59.228Z,0.00
2019-02-17T02:22:59.284Z,0.00
2019-02-17T02:23:59.356Z,0.00
2019-02-17T02:24:59.404Z,0.00
2019-02-17T02:25:59.472Z,0.00
2019-02-17T02:26:59.548Z,0.00
2019-02-17T02:27:59.598Z,0.00
2019-02-17T02:28:59.650Z,0.00
2019-02-17T02:29:59.699Z,0.00
2019-02-17T02:30:59.792Z,0.00
2019-02-17T02:31:59.825Z,0.00
2019-02-17T02:32:59.888Z,0.00
2019-02-17T02:33:59.940Z,0.00
2019-02-17T02:35:00.004Z,0.00
2019-02-17T02:36:00.071Z,0.00
2019-02-17T02:37:00.135Z,0.00
2019-02-17T02:38:00.178Z,0.00
2019-02-17T02:39:00.256Z,0.00
2019-02-17T02:40:00.316Z,0.00
2019-02-17T02:41:00.356Z,0.00
2019-02-17T02:42:00.414Z,0.00
2019-02-17T02:43:00.464Z,0.00
2019-02-17T02:44:00.520Z,0.00
2019-02-17T02:45:00.580Z,0.00
2019-02-17T02:46:00.660Z,0.00
2019-02-17T02:47:00.704Z,0.00
2019-02-17T02:48:00.755Z,0.00
2019-02-17T02:49:00.816Z,0.00
2019-02-17T02:50:00.932Z,0.00
2019-02-17T02:51:00.952Z,0.00
2019-02-17T02:52:01.013Z,0.00
2019-02-17T02:53:01.108Z,0.00
2019-02-17T02:54:01.116Z,0.00
2019-02-17T02:55:01.169Z,0.00
2019-02-17T02:56:01.318Z,0.00
2019-02-17T02:57:01.284Z,0.00
2019-02-17T02:58:01.353Z,0.00
2019-02-17T02:59:01.407Z,0.00
2019-02-17T03:00:01.495Z,0.00
2019-02-17T03:01:01.553Z,0.00
2019-02-17T03:02:01.590Z,0.00
2019-02-17T03:03:01.653Z,0.00
2019-02-17T03:04:01.694Z,0.00
2019-02-17T03:05:01.779Z,0.00
2019-02-17T03:06:01.834Z,0.00
2019-02-17T03:07:01.890Z,0.00
2019-02-17T03:08:01.937Z,0.00
2019-02-17T03:09:01.998Z,0.00
2019-02-17T03:10:02.050Z,0.00
2019-02-17T03:11:02.209Z,0.00
2019-02-17T03:12:02.165Z,0.00
2019-02-17T03:13:02.225Z,0.00
2019-02-17T03:14:02.298Z,0.00
2019-02-17T03:15:02.349Z,0.00
2019-02-17T03:16:02.414Z,0.00
2019-02-17T03:17:02.477Z,0.00
2019-02-17T03:18:02.526Z,0.00
2019-02-17T03:19:02.585Z,0.00
2019-02-17T03:20:02.641Z,0.00
2019-02-17T03:21:02.712Z,0.00
2019-02-17T03:22:02.765Z,0.00
2019-02-17T03:23:02.819Z,0.00
2019-02-17T03:24:02.867Z,0.00
2019-02-17T03:25:02.926Z,0.00
2019-02-17T03:26:03.009Z,0.00
2019-02-17T03:27:03.046Z,0.00
2019-02-17T03:28:03.101Z,0.00
2019-02-17T03:29:03.161Z,0.00
2019-02-17T03:30:05.460Z,0.00
2019-02-17T03:31:03.380Z,0.00
2019-02-17T03:32:03.351Z,0.00
2019-02-17T03:33:03.414Z,0.00
2019-02-17T03:34:03.497Z,0.00
2019-02-17T03:35:07.318Z,0.00
2019-02-17T03:36:03.578Z,0.00
2019-02-17T03:37:03.645Z,0.00
2019-02-17T03:38:03.698Z,0.00
2019-02-17T03:39:03.747Z,0.00
2019-02-17T03:40:03.814Z,0.00
2019-02-17T03:41:03.878Z,0.00
2019-02-17T03:42:03.930Z,0.00
2019-02-17T03:43:03.982Z,0.00
2019-02-17T03:44:04.046Z,0.00
2019-02-17T03:45:04.094Z,0.00
2019-02-17T03:46:04.166Z,0.00
2019-02-17T03:47:04.219Z,0.00
2019-02-17T03:48:04.273Z,0.00
2019-02-17T03:49:04.355Z,0.00
2019-02-17T03:50:04.398Z,0.00
2019-02-17T03:51:04.458Z,0.00
2019-02-17T03:52:04.518Z,0.00
2019-02-17T03:53:04.578Z,0.00
2019-02-17T03:54:04.622Z,0.00
2019-02-17T03:55:04.682Z,0.00
2019-02-17T03:56:04.755Z,0.00
2019-02-17T03:57:04.815Z,0.00
2019-02-17T03:58:04.868Z,0.00
2019-02-17T03:59:04.919Z,0.00
2019-02-17T04:00:16.028Z,0.00
2019-02-17T04:01:05.055Z,0.00
2019-02-17T04:02:05.144Z,0.00
2019-02-17T04:03:05.176Z,0.00
2019-02-17T04:04:05.224Z,0.00
2019-02-17T04:05:05.274Z,0.00
2019-02-17T04:06:05.334Z,0.00
2019-02-17T04:07:05.414Z,0.00
2019-02-17T04:08:05.452Z,0.00
2019-02-17T04:09:05.507Z,0.00
2019-02-17T04:10:05.606Z,0.00
2019-02-17T04:11:05.640Z,0.00
2019-02-17T04:12:05.703Z,0.00
2019-02-17T04:13:05.753Z,0.00
2019-02-17T04:14:05.795Z,0.00
2019-02-17T04:15:05.853Z,0.00
2019-02-17T04:16:05.908Z,0.00
2019-02-17T04:17:05.976Z,0.00
2019-02-17T04:18:06.040Z,0.00
2019-02-17T04:19:06.100Z,0.00
2019-02-17T04:20:06.161Z,0.00
2019-02-17T04:21:06.216Z,0.00
2019-02-17T04:22:06.282Z,0.00
2019-02-17T04:23:06.340Z,0.00
2019-02-17T04:24:06.397Z,0.00
2019-02-17T04:25:06.440Z,0.00
2019-02-17T04:26:06.493Z,0.00
2019-02-17T04:27:06.559Z,0.00
2019-02-17T04:28:06.624Z,0.00
2019-02-17T04:29:06.672Z,0.00
2019-02-17T04:30:06.733Z,0.00
2019-02-17T04:31:06.801Z,0.00
2019-02-17T04:32:06.845Z,0.00
2019-02-17T04:33:06.949Z,0.00
2019-02-17T04:34:06.973Z,0.00
2019-02-17T04:35:07.029Z,0.00
2019-02-17T04:36:07.080Z,0.00
2019-02-17T04:37:07.138Z,0.00
2019-02-17T04:38:07.264Z,0.00
2019-02-17T04:39:07.268Z,0.00
2019-02-17T04:40:07.317Z,0.00
2019-02-17T04:41:07.366Z,0.00
2019-02-17T04:42:07.445Z,0.00
2019-02-17T04:43:07.501Z,0.00
2019-02-17T04:44:07.573Z,0.00
2019-02-17T04:45:07.601Z,0.00
2019-02-17T04:46:07.657Z,0.00
2019-02-17T04:47:07.729Z,0.00
2019-02-17T04:48:07.797Z,0.00
2019-02-17T04:49:07.849Z,0.00
2019-02-17T04:50:07.901Z,0.00
2019-02-17T04:51:07.949Z,0.00
2019-02-17T04:52:08.034Z,0.00
2019-02-17T04:53:08.095Z,0.00
2019-02-17T04:54:08.134Z,0.00
2019-02-17T04:55:08.191Z,0.00
2019-02-17T04:56:08.258Z,0.00
2019-02-17T04:57:08.299Z,0.00
2019-02-17T04:58:08.374Z,0.00
2019-02-17T04:59:08.458Z,0.00
2019-02-17T05:00:08.486Z,0.00
2019-02-17T05:01:08.539Z,0.00
2019-02-17T05:02:08.614Z,0.00
2019-02-17T05:03:08.678Z,0.00
2019-02-17T05:04:08.744Z,0.00
2019-02-17T05:05:08.808Z,0.00
2019-02-17T05:06:08.838Z,0.00
2019-02-17T05:07:08.899Z,0.00
2019-02-17T05:08:08.967Z,0.00
2019-02-17T05:09:09.012Z,0.00
2019-02-17T05:10:09.087Z,0.00
2019-02-17T05:11:09.124Z,0.00
2019-02-17T05:12:09.210Z,0.00
2019-02-17T05:13:09.290Z,0.00
2019-02-17T05:14:09.303Z,0.00
2019-02-17T05:15:09.348Z,0.00
2019-02-17T05:16:09.423Z,0.00
2019-02-17T05:17:09.475Z,0.00
2019-02-17T05:18:09.539Z,0.00
2019-02-17T05:19:09.602Z,0.00
2019-02-17T05:20:09.652Z,0.00
2019-02-17T05:21:09.696Z,0.00
2019-02-17T05:22:09.775Z,0.00
2019-02-17T05:23:09.839Z,0.00
2019-02-17T05:24:09.889Z,0.00
2019-02-17T05:25:09.940Z,0.00
2019-02-17T05:26:09.985Z,0.00
2019-02-17T05:27:10.056Z,0.00
2019-02-17T05:28:10.304Z,0.00
2019-02-17T05:29:10.156Z,0.00
2019-02-17T05:30:10.235Z,0.00
2019-02-17T05:31:10.279Z,0.00
2019-02-17T05:32:10.368Z,0.00
2019-02-17T05:33:10.412Z,0.00
2019-02-17T05:34:10.488Z,0.00
2019-02-17T05:35:10.513Z,0.00
2019-02-17T05:36:10.583Z,0.00
2019-02-17T05:37:10.637Z,0.00
2019-02-17T05:38:10.709Z,0.00
2019-02-17T05:39:10.757Z,0.00
2019-02-17T05:40:10.825Z,0.00
2019-02-17T05:41:10.869Z,0.00
2019-02-17T05:42:10.928Z,0.00
2019-02-17T05:43:11.013Z,0.00
2019-02-17T05:44:11.053Z,0.00
2019-02-17T05:45:11.098Z,0.00
2019-02-17T05:46:11.177Z,0.00
2019-02-17T05:47:11.222Z,0.00
2019-02-17T05:48:11.274Z,0.00
2019-02-17T05:49:11.345Z,0.00
2019-02-17T05:50:11.389Z,0.00
2019-02-17T05:51:11.465Z,0.00
2019-02-17T05:52:11.522Z,0.00
2019-02-17T05:53:11.562Z,0.00
2019-02-17T05:54:11.626Z,0.00
2019-02-17T05:55:11.685Z,0.00
2019-02-17T05:56:11.743Z,0.00
2019-02-17T05:57:11.797Z,0.00
2019-02-17T05:58:11.862Z,0.00
2019-02-17T05:59:12.079Z,0.00
2019-02-17T06:00:11.990Z,0.00
2019-02-17T06:01:12.017Z,0.00
2019-02-17T06:02:12.086Z,0.00
2019-02-17T06:03:12.154Z,0.00
2019-02-17T06:04:12.255Z,0.00
2019-02-17T06:05:12.318Z,0.00
2019-02-17T06:06:14.809Z,0.00
2019-02-17T06:07:12.386Z,0.00
2019-02-17T06:08:12.434Z,0.00
2019-02-17T06:09:12.498Z,0.00
2019-02-17T06:10:12.555Z,4.00
2019-02-17T06:11:12.607Z,4.00
2019-02-17T06:12:12.667Z,0.00
2019-02-17T06:13:12.727Z,4.00
2019-02-17T06:14:12.785Z,4.00
2019-02-17T06:15:12.853Z,4.00
2019-02-17T06:16:12.907Z,4.00
2019-02-17T06:17:12.951Z,4.00
2019-02-17T06:18:13.007Z,4.00
2019-02-17T06:19:13.095Z,4.00
2019-02-17T06:20:13.123Z,4.00
2019-02-17T06:21:13.187Z,8.00
2019-02-17T06:22:13.239Z,8.00
2019-02-17T06:23:13.307Z,12.00
2019-02-17T06:24:13.367Z,12.00
2019-02-17T06:25:13.432Z,12.00
2019-02-17T06:26:13.477Z,16.00
2019-02-17T06:27:13.535Z,20.00
2019-02-17T06:28:13.591Z,24.00
2019-02-17T06:29:13.655Z,28.00
2019-02-17T06:30:13.722Z,32.00
2019-02-17T06:31:14.815Z,40.00
2019-02-17T06:32:13.826Z,48.00
2019-02-17T06:33:13.883Z,52.00
2019-02-17T06:34:13.960Z,60.00
2019-02-17T06:35:14.004Z,68.00
2019-02-17T06:36:14.068Z,76.00
2019-02-17T06:37:14.114Z,84.00
2019-02-17T06:38:14.176Z,84.00
2019-02-17T06:39:14.283Z,96.00
2019-02-17T06:40:14.296Z,104.00
2019-02-17T06:41:14.352Z,112.00
2019-02-17T06:42:14.405Z,124.00
2019-02-17T06:43:14.474Z,136.00
2019-02-17T06:44:14.528Z,144.00
2019-02-17T06:45:14.589Z,164.00
2019-02-17T06:46:14.652Z,176.00
2019-02-17T06:47:14.731Z,196.00
2019-02-17T06:48:14.757Z,216.00
2019-02-17T06:49:14.821Z,236.00
2019-02-17T06:50:14.906Z,260.00
2019-02-17T06:51:14.945Z,276.00
2019-02-17T06:52:14.990Z,300.00
2019-02-17T06:53:15.071Z,328.00
2019-02-17T06:54:15.141Z,352.00
2019-02-17T06:55:15.174Z,380.00
2019-02-17T06:56:15.231Z,404.00
2019-02-17T06:57:15.289Z,436.00
2019-02-17T06:58:15.354Z,472.00
2019-02-17T06:59:15.418Z,500.00
2019-02-17T07:00:15.480Z,536.00
2019-02-17T07:01:24.387Z,568.00
2019-02-17T07:02:15.577Z,596.00
2019-02-17T07:03:15.666Z,624.00
2019-02-17T07:04:15.705Z,652.00
2019-02-17T07:05:15.766Z,688.00
2019-02-17T07:06:15.813Z,724.00
2019-02-17T07:07:15.873Z,760.00
2019-02-17T07:08:15.964Z,804.00
2019-02-17T07:09:16.006Z,848.00
2019-02-17T07:10:16.086Z,888.00
2019-02-17T07:11:16.125Z,924.00
2019-02-17T07:12:16.256Z,956.00
2019-02-17T07:13:16.230Z,984.00
2019-02-17T07:14:16.300Z,1020.00
2019-02-17T07:15:16.390Z,1056.00
2019-02-17T07:16:16.430Z,1100.00
2019-02-17T07:17:16.462Z,1144.00
2019-02-17T07:18:16.543Z,1180.00
2019-02-17T07:19:16.583Z,1212.00
2019-02-17T07:20:16.651Z,1252.00
2019-02-17T07:21:16.711Z,1288.00
2019-02-17T07:22:16.767Z,1332.00
2019-02-17T07:23:16.819Z,1380.00
2019-02-17T07:24:16.895Z,1436.00
2019-02-17T07:25:16.951Z,1484.00
2019-02-17T07:26:17.320Z,1520.00
2019-02-17T07:27:17.083Z,1560.00
2019-02-17T07:28:17.119Z,1616.00
2019-02-17T07:29:17.207Z,1672.00
2019-02-17T07:30:17.223Z,1732.00
2019-02-17T07:31:17.351Z,1792.00
2019-02-17T07:32:17.351Z,1840.00
2019-02-17T07:33:17.407Z,1888.00
2019-02-17T07:34:17.475Z,1936.00
2019-02-17T07:35:17.529Z,1976.00
2019-02-17T07:36:17.596Z,2020.00
2019-02-17T07:37:19.404Z,2080.00
2019-02-17T07:38:17.708Z,2160.00
2019-02-17T07:39:17.768Z,2240.00
2019-02-17T07:40:17.844Z,2344.00
2019-02-17T07:41:17.900Z,2444.00
2019-02-17T07:42:17.981Z,2588.00
2019-02-17T07:43:18.032Z,2828.00
2019-02-17T07:44:18.064Z,3560.00
2019-02-17T07:45:18.156Z,6924.00
2019-02-17T07:46:18.276Z,11696.00
2019-02-17T07:47:18.261Z,13248.00
2019-02-17T07:48:18.308Z,13984.00
2019-02-17T07:49:18.426Z,15040.00
2019-02-17T07:50:18.420Z,15744.00
2019-02-17T07:51:18.496Z,16000.00
2019-02-17T07:52:18.561Z,15616.00
2019-02-17T07:53:18.604Z,14176.00
2019-02-17T07:54:18.669Z,13280.00
2019-02-17T07:55:18.728Z,12992.00
2019-02-17T07:56:18.797Z,13056.00
2019-02-17T07:57:18.862Z,12464.00
2019-02-17T07:58:18.913Z,12620.00
2019-02-17T07:59:18.977Z,12076.00
2019-02-17T08:00:19.039Z,12744.00
2019-02-17T08:01:19.194Z,10704.00
2019-02-17T08:02:19.161Z,7184.00
2019-02-17T08:03:19.226Z,4988.00
2019-02-17T08:04:19.285Z,4656.00
2019-02-17T08:05:19.349Z,4320.00
2019-02-17T08:06:19.417Z,3896.00
2019-02-17T08:07:19.481Z,3564.00
2019-02-17T08:08:19.535Z,3408.00
2019-02-17T08:09:19.597Z,3348.00
2019-02-17T08:10:19.658Z,3344.00
2019-02-17T08:11:19.730Z,3360.00
2019-02-17T08:12:19.790Z,3420.00
2019-02-17T08:13:19.846Z,3492.00
2019-02-17T08:14:19.910Z,3576.00
2019-02-17T08:15:19.979Z,3664.00
2019-02-17T08:16:20.034Z,3748.00
2019-02-17T08:17:20.130Z,3936.00
2019-02-17T08:18:20.158Z,4224.00
2019-02-17T08:19:20.222Z,4956.00
2019-02-17T08:20:20.286Z,8560.00
2019-02-17T08:21:20.346Z,13728.00
2019-02-17T08:22:20.418Z,14912.00
2019-02-17T08:23:20.478Z,14272.00
2019-02-17T08:24:20.535Z,14592.00
2019-02-17T08:25:22.142Z,12652.00
2019-02-17T08:26:20.658Z,12228.00
2019-02-17T08:27:20.730Z,11196.00
2019-02-17T08:28:20.798Z,9836.00
2019-02-17T08:29:20.847Z,7760.00
2019-02-17T08:30:20.910Z,6196.00
2019-02-17T08:31:20.976Z,5404.00
2019-02-17T08:32:21.042Z,5700.00
2019-02-17T08:33:21.113Z,5728.00
2019-02-17T08:34:21.163Z,5720.00
2019-02-17T08:35:21.227Z,6640.00
2019-02-17T08:36:21.291Z,6612.00
2019-02-17T08:37:21.439Z,6252.00
2019-02-17T08:38:21.415Z,6504.00
2019-02-17T08:39:21.479Z,7048.00
2019-02-17T08:40:21.544Z,7628.00
2019-02-17T08:41:21.611Z,7992.00
2019-02-17T08:42:21.679Z,8440.00
2019-02-17T08:43:21.743Z,9304.00
2019-02-17T08:44:21.799Z,9440.00
2019-02-17T08:45:21.860Z,9900.00
2019-02-17T08:46:21.952Z,12768.00
2019-02-17T08:47:21.995Z,14816.00
2019-02-17T08:48:22.060Z,14496.00
2019-02-17T08:49:22.117Z,14816.00
2019-02-17T08:50:22.189Z,14112.00
2019-02-17T08:51:22.244Z,12516.00
2019-02-17T08:52:22.404Z,12172.00
2019-02-17T08:53:22.372Z,12224.00
2019-02-17T08:54:22.435Z,11252.00
2019-02-17T08:55:22.500Z,11076.00
2019-02-17T08:56:22.564Z,12092.00
2019-02-17T08:57:22.636Z,11892.00
2019-02-17T08:58:22.705Z,11972.00
2019-02-17T08:59:22.760Z,11628.00
2019-02-17T09:00:22.824Z,7896.00
2019-02-17T09:01:22.889Z,8252.00
2019-02-17T09:02:22.961Z,9828.00
2019-02-17T09:03:23.024Z,9268.00
2019-02-17T09:04:23.083Z,8576.00
2019-02-17T09:05:23.148Z,8180.00
2019-02-17T09:06:23.212Z,8376.00
2019-02-17T09:07:23.375Z,8376.00
2019-02-17T09:08:23.351Z,8516.00
2019-02-17T09:09:23.413Z,8620.00
2019-02-17T09:10:23.473Z,8660.00
2019-02-17T09:11:23.537Z,8404.00
2019-02-17T09:12:23.609Z,8612.00
2019-02-17T09:13:23.677Z,8312.00
2019-02-17T09:14:23.737Z,8560.00
2019-02-17T09:15:23.797Z,8504.00
2019-02-17T09:16:23.860Z,8796.00
2019-02-17T09:17:23.933Z,8684.00
2019-02-17T09:18:24.003Z,8340.00
2019-02-17T09:19:24.057Z,8188.00
2019-02-17T09:20:24.138Z,7860.00
2019-02-17T09:21:24.189Z,7908.00
2019-02-17T09:22:24.349Z,8120.00
2019-02-17T09:23:24.322Z,8132.00
2019-02-17T09:24:24.385Z,8356.00
2019-02-17T09:25:24.449Z,8164.00
2019-02-17T09:26:24.570Z,7660.00
2019-02-17T09:27:24.617Z,7524.00
2019-02-17T09:28:24.655Z,7664.00
2019-02-17T09:29:24.713Z,7640.00
2019-02-17T09:30:24.778Z,7412.00
2019-02-17T09:31:24.842Z,7804.00
2019-02-17T09:32:24.914Z,7848.00
2019-02-17T09:33:24.982Z,7932.00
2019-02-17T09:34:25.046Z,8048.00
2019-02-17T09:35:25.106Z,7868.00
2019-02-17T09:36:25.170Z,7708.00
2019-02-17T09:37:25.258Z,7644.00
2019-02-17T09:38:25.302Z,7512.00
2019-02-17T09:39:25.372Z,7348.00
2019-02-17T09:40:25.434Z,7132.00
2019-02-17T09:41:25.498Z,6644.00
2019-02-17T09:42:25.570Z,6776.00
2019-02-17T09:43:25.642Z,7136.00
2019-02-17T09:44:25.695Z,6980.00
2019-02-17T09:45:25.763Z,6592.00
2019-02-17T09:46:25.829Z,6328.00
2019-02-17T09:47:25.898Z,6124.00
2019-02-17T09:48:25.962Z,6492.00
2019-02-17T09:49:26.027Z,6564.00
2019-02-17T09:50:26.090Z,6580.00
2019-02-17T09:51:26.155Z,6124.00
2019-02-17T09:52:26.319Z,6212.00
2019-02-17T09:53:26.290Z,6376.00
2019-02-17T09:54:26.351Z,6272.00
2019-02-17T09:55:26.419Z,6360.00
2019-02-17T09:56:26.563Z,6224.00
2019-02-17T09:57:26.559Z,6276.00
2019-02-17T09:58:26.619Z,6136.00
2019-02-17T09:59:26.679Z,5788.00
2019-02-17T10:00:26.743Z,5740.00
2019-02-17T10:01:26.807Z,5656.00
2019-02-17T10:02:26.998Z,5652.00
2019-02-17T10:03:26.951Z,5756.00
2019-02-17T10:04:27.011Z,5824.00
2019-02-17T10:05:27.071Z,5964.00
2019-02-17T10:06:27.528Z,5968.00
2019-02-17T10:07:27.735Z,5904.00
2019-02-17T10:08:27.712Z,5800.00
2019-02-17T10:09:27.692Z,5628.00
2019-02-17T10:10:27.564Z,5640.00
2019-02-17T10:11:27.876Z,5572.00
2019-02-17T10:12:27.799Z,5588.00
2019-02-17T10:13:27.648Z,5376.00
2019-02-17T10:14:27.672Z,5100.00
2019-02-17T10:15:27.760Z,5436.00
2019-02-17T10:16:27.804Z,5508.00
2019-02-17T10:17:27.881Z,5500.00
2019-02-17T10:18:27.935Z,5548.00
2019-02-17T10:19:27.998Z,5312.00
2019-02-17T10:20:28.064Z,5448.00
2019-02-17T10:21:28.120Z,5532.00
2019-02-17T10:22:28.188Z,5608.00
2019-02-17T10:23:28.278Z,5652.00
2019-02-17T10:24:28.324Z,5716.00
2019-02-17T10:25:28.386Z,5720.00
2019-02-17T10:26:28.449Z,5544.00
2019-02-17T10:27:28.521Z,5572.00
2019-02-17T10:28:28.589Z,5364.00
2019-02-17T10:29:28.656Z,5264.00
2019-02-17T10:30:28.713Z,5188.00
2019-02-17T10:31:28.781Z,5128.00
2019-02-17T10:32:36.446Z,5128.00
2019-02-17T10:33:28.926Z,5012.00
2019-02-17T10:34:28.986Z,5004.00
2019-02-17T10:35:29.045Z,4884.00
2019-02-17T10:36:29.113Z,4384.00
2019-02-17T10:37:29.177Z,4884.00
2019-02-17T10:38:29.241Z,4824.00
2019-02-17T10:39:29.671Z,4812.00
2019-02-17T10:40:29.377Z,4720.00
2019-02-17T10:41:29.450Z,4668.00
2019-02-17T10:42:29.520Z,4596.00
2019-02-17T10:43:29.586Z,4656.00
2019-02-17T10:44:29.645Z,4588.00
2019-02-17T10:45:29.814Z,4564.00
2019-02-17T10:46:29.773Z,4360.00
2019-02-17T10:47:29.852Z,4412.00
2019-02-17T10:48:29.897Z,4400.00
2019-02-17T10:49:29.966Z,4356.00
2019-02-17T10:50:30.055Z,4264.00
2019-02-17T10:51:30.111Z,4272.00
2019-02-17T10:52:30.178Z,4208.00
2019-02-17T10:53:30.242Z,4056.00
2019-02-17T10:54:30.294Z,3928.00
2019-02-17T10:55:30.374Z,3852.00
2019-02-17T10:56:30.446Z,3832.00
2019-02-17T10:57:30.493Z,3964.00
2019-02-17T10:58:30.568Z,3908.00
2019-02-17T10:59:30.643Z,3960.00
2019-02-17T11:00:30.702Z,3968.00
2019-02-17T11:01:30.759Z,3860.00
2019-02-17T11:02:30.835Z,3796.00
2019-02-17T11:03:30.896Z,3860.00
2019-02-17T11:04:30.961Z,3820.00
2019-02-17T11:05:31.026Z,3712.00
2019-02-17T11:06:31.098Z,3676.00
2019-02-17T11:07:31.151Z,3664.00
2019-02-17T11:08:31.219Z,3652.00
2019-02-17T11:09:31.283Z,3620.00
2019-02-17T11:10:31.367Z,3620.00
2019-02-17T11:11:31.431Z,3640.00
2019-02-17T11:12:31.499Z,3588.00
2019-02-17T11:13:31.563Z,3548.00
2019-02-17T11:14:31.616Z,3492.00
2019-02-17T11:15:31.683Z,3392.00
2019-02-17T11:16:31.760Z,3376.00
2019-02-17T11:17:31.820Z,3420.00
2019-02-17T11:18:31.891Z,3396.00
2019-02-17T11:19:31.940Z,3324.00
2019-02-17T11:20:32.023Z,3404.00
2019-02-17T11:21:32.083Z,3368.00
2019-02-17T11:22:32.171Z,3360.00
2019-02-17T11:23:32.220Z,3360.00
2019-02-17T11:24:32.335Z,3420.00
2019-02-17T11:25:32.371Z,3388.00
2019-02-17T11:26:32.413Z,3332.00
2019-02-17T11:27:32.496Z,3284.00
2019-02-17T11:28:32.553Z,3216.00
2019-02-17T11:29:32.607Z,3248.00
2019-02-17T11:30:32.680Z,3160.00
2019-02-17T11:31:32.755Z,3144.00
2019-02-17T11:32:32.804Z,3136.00
2019-02-17T11:33:32.884Z,3136.00
2019-02-17T11:34:32.944Z,3108.00
2019-02-17T11:35:33.020Z,3076.00
2019-02-17T11:36:33.080Z,3008.00
2019-02-17T11:37:33.128Z,3108.00
2019-02-17T11:38:33.212Z,3112.00
2019-02-17T11:39:33.268Z,3080.00
2019-02-17T11:40:33.348Z,3032.00
2019-02-17T11:41:33.401Z,3036.00
2019-02-17T11:42:33.477Z,3060.00
2019-02-17T11:43:33.541Z,3044.00
2019-02-17T11:44:33.597Z,2968.00
2019-02-17T11:45:33.684Z,2984.00
2019-02-17T11:46:33.769Z,3028.00
2019-02-17T11:47:33.797Z,3052.00
2019-02-17T11:48:33.861Z,3060.00
2019-02-17T11:49:33.925Z,3064.00
2019-02-17T11:50:34.013Z,3072.00
2019-02-17T11:51:34.065Z,3064.00
2019-02-17T11:52:34.138Z,3056.00
2019-02-17T11:53:34.185Z,3044.00
2019-02-17T11:54:34.257Z,2988.00
2019-02-17T11:55:34.325Z,3044.00
2019-02-17T11:56:34.493Z,3040.00
2019-02-17T11:57:34.452Z,2916.00
2019-02-17T11:58:34.514Z,2980.00
2019-02-17T11:59:34.581Z,2792.00
2019-02-17T12:00:34.649Z,3020.00
2019-02-17T12:01:34.722Z,2984.00
2019-02-17T12:02:34.785Z,2996.00
2019-02-17T12:03:34.849Z,2976.00
2019-02-17T12:04:34.914Z,2948.00
2019-02-17T12:05:34.978Z,2896.00
2019-02-17T12:06:35.050Z,2920.00
2019-02-17T12:07:35.118Z,2988.00
2019-02-17T12:08:35.174Z,2980.00
2019-02-17T12:09:35.242Z,3012.00
2019-02-17T12:10:35.306Z,3012.00
2019-02-17T12:11:35.470Z,2980.00
2019-02-17T12:12:35.440Z,3000.00
2019-02-17T12:13:35.507Z,2996.00
2019-02-17T12:14:35.571Z,2996.00
2019-02-17T12:15:35.639Z,3016.00
2019-02-17T12:16:37.256Z,2964.00
2019-02-17T12:17:35.774Z,2928.00
2019-02-17T12:18:35.834Z,2896.00
2019-02-17T12:19:35.902Z,2932.00
2019-02-17T12:20:35.966Z,2940.00
2019-02-17T12:21:36.042Z,2932.00
2019-02-17T12:22:36.111Z,2916.00
2019-02-17T12:23:36.169Z,2936.00
2019-02-17T12:24:36.231Z,2960.00
2019-02-17T12:25:36.299Z,3016.00
2019-02-17T12:26:36.370Z,3008.00
2019-02-17T12:27:36.438Z,2996.00
2019-02-17T12:28:36.495Z,2988.00
2019-02-17T12:29:38.322Z,2936.00
2019-02-17T12:30:36.627Z,2952.00
2019-02-17T12:31:36.699Z,3004.00
2019-02-17T12:32:36.767Z,3028.00
2019-02-17T12:33:36.827Z,3084.00
2019-02-17T12:34:36.900Z,3108.00
2019-02-17T12:35:36.959Z,3092.00
2019-02-17T12:36:37.034Z,3084.00
2019-02-17T12:37:37.099Z,3104.00
2019-02-17T12:38:37.158Z,3120.00
2019-02-17T12:39:37.223Z,3152.00
2019-02-17T12:40:37.287Z,3112.00
2019-02-17T12:41:37.504Z,3072.00
2019-02-17T12:42:37.419Z,3088.00